createdAt,value
2018-11-01T00:02:29.129Z,3.60
2018-11-01T00:04:57.903Z,5.73
2018-11-01T00:07:26.600Z,3.80
2018-11-01T00:09:55.292Z,4.17
2018-11-01T00:12:23.703Z,5.67
2018-11-01T00:14:52.433Z,4.23
2018-11-01T00:17:21.150Z,3.93
2018-11-01T00:19:49.905Z,4.87
2018-11-01T00:22:18.615Z,4.13
2018-11-01T00:24:47.416Z,4.07
2018-11-01T00:27:16.190Z,6.17
2018-11-01T00:29:44.929Z,4.03
2018-11-01T00:32:13.893Z,6.63
2018-11-01T00:34:42.702Z,4.13
2018-11-01T00:37:11.445Z,5.17
2018-11-01T00:39:40.188Z,4.03
2018-11-01T00:42:08.909Z,5.17
2018-11-01T00:44:37.617Z,5.30
2018-11-01T00:47:06.368Z,4.00
2018-11-01T00:49:35.180Z,5.10
2018-11-01T00:52:04.098Z,4.00
2018-11-01T00:54:32.851Z,3.30
2018-11-01T00:57:01.632Z,3.60
2018-11-01T00:59:30.368Z,3.53
2018-11-01T01:01:59.117Z,3.40
2018-11-01T01:04:27.835Z,3.27
2018-11-01T01:06:56.564Z,3.60
2018-11-01T01:09:25.302Z,3.47
2018-11-01T01:11:54.109Z,3.23
2018-11-01T01:14:22.806Z,4.27
2018-11-01T01:16:51.524Z,4.80
2018-11-01T01:19:20.272Z,3.70
2018-11-01T01:21:49.004Z,4.63
2018-11-01T01:24:17.752Z,3.37
2018-11-01T01:26:46.497Z,3.57
2018-11-01T01:29:15.231Z,3.20
2018-11-01T01:31:44.261Z,3.37
2018-11-01T01:34:12.957Z,3.57
2018-11-01T01:36:41.707Z,3.47
2018-11-01T01:39:11.082Z,3.60
2018-11-01T01:41:39.793Z,3.20
2018-11-01T01:44:08.574Z,3.50
2018-11-01T01:46:37.384Z,4.50
2018-11-01T01:49:07.466Z,3.50
2018-11-01T01:51:36.189Z,4.10
2018-11-01T01:54:05.115Z,3.53
2018-11-01T01:56:33.887Z,3.00
2018-11-01T01:59:02.691Z,3.60
2018-11-01T02:01:31.404Z,3.20
2018-11-01T02:04:00.153Z,3.30
2018-11-01T02:06:28.914Z,3.67
2018-11-01T02:08:57.643Z,3.33
2018-11-01T02:11:26.574Z,3.10
2018-11-01T02:13:55.301Z,3.00
2018-11-01T02:16:24.058Z,3.33
2018-11-01T02:18:52.851Z,4.63
2018-11-01T02:21:21.605Z,4.17
2018-11-01T02:23:50.345Z,5.53
2018-11-01T02:26:19.105Z,3.63
2018-11-01T02:28:47.802Z,3.23
2018-11-01T02:31:16.789Z,3.87
2018-11-01T02:33:45.505Z,3.37
2018-11-01T02:36:14.312Z,3.20
2018-11-01T02:38:43.112Z,3.80
2018-11-01T02:41:11.741Z,3.00
2018-11-01T02:43:40.469Z,3.30
2018-11-01T02:46:09.230Z,3.00
2018-11-01T02:48:37.974Z,2.97
2018-11-01T02:51:06.733Z,2.97
2018-11-01T02:53:35.500Z,3.83
2018-11-01T02:56:04.232Z,3.03
2018-11-01T02:58:33.000Z,4.70
2018-11-01T03:01:01.730Z,2.87
2018-11-01T03:03:30.525Z,2.73
2018-11-01T03:05:59.280Z,2.60
2018-11-01T03:08:27.965Z,3.10
2018-11-01T03:10:56.685Z,2.70
2018-11-01T03:13:25.397Z,2.70
2018-11-01T03:15:54.212Z,2.60
2018-11-01T03:18:22.920Z,2.73
2018-11-01T03:20:51.663Z,2.93
2018-11-01T03:23:20.463Z,2.50
2018-11-01T03:25:49.205Z,2.50
2018-11-01T03:28:17.906Z,2.60
2018-11-01T03:30:46.667Z,2.67
2018-11-01T03:33:15.411Z,3.23
2018-11-01T03:35:44.190Z,2.87
2018-11-01T03:38:12.995Z,3.23
2018-11-01T03:40:41.705Z,2.40
2018-11-01T03:43:10.401Z,2.77
2018-11-01T03:45:39.238Z,6.87
2018-11-01T03:48:07.938Z,3.00
2018-11-01T03:50:36.706Z,2.40
2018-11-01T03:53:05.683Z,2.47
2018-11-01T03:55:34.380Z,2.80
2018-11-01T03:58:03.168Z,3.00
2018-11-01T04:00:31.937Z,2.47
2018-11-01T04:03:00.608Z,3.87
2018-11-01T04:05:29.371Z,2.77
2018-11-01T04:07:58.142Z,4.20
2018-11-01T04:10:26.852Z,2.80
2018-11-01T04:12:55.553Z,2.70
2018-11-01T04:15:24.365Z,2.87
2018-11-01T04:17:53.035Z,3.60
2018-11-01T04:20:21.763Z,2.60
2018-11-01T04:22:50.562Z,2.57
2018-11-01T04:25:19.325Z,2.60
2018-11-01T04:27:48.112Z,3.40
2018-11-01T04:30:16.974Z,3.07
2018-11-01T04:32:45.777Z,2.97
2018-11-01T04:35:14.497Z,2.80
2018-11-01T04:37:43.342Z,2.37
2018-11-01T04:40:12.122Z,3.10
2018-11-01T04:42:41.522Z,3.00
2018-11-01T04:45:11.514Z,3.20
2018-11-01T04:47:40.536Z,4.03
2018-11-01T04:50:10.559Z,3.07
2018-11-01T04:52:39.296Z,2.60
2018-11-01T04:55:08.746Z,3.50
2018-11-01T04:57:37.767Z,3.20
2018-11-01T05:00:09.049Z,3.67
2018-11-01T05:02:37.832Z,3.00
2018-11-01T05:05:06.708Z,3.10
2018-11-01T05:07:35.380Z,3.40
2018-11-01T05:10:04.214Z,3.57
2018-11-01T05:12:32.934Z,3.17
2018-11-01T05:15:01.774Z,3.07
2018-11-01T05:17:30.555Z,3.43
2018-11-01T05:19:59.340Z,5.93
2018-11-01T05:22:28.118Z,3.23
2018-11-01T05:24:56.846Z,3.40
2018-11-01T05:27:25.708Z,3.40
2018-11-01T05:29:54.501Z,3.30
2018-11-01T05:32:23.219Z,5.93
2018-11-01T05:34:51.946Z,6.20
2018-11-01T05:37:20.732Z,3.53
2018-11-01T05:39:49.466Z,3.20
2018-11-01T05:42:18.205Z,3.13
2018-11-01T05:44:46.936Z,3.47
2018-11-01T05:47:15.744Z,3.30
2018-11-01T05:49:44.452Z,3.43
2018-11-01T05:52:13.185Z,3.20
2018-11-01T05:54:41.954Z,3.20
2018-11-01T05:57:10.694Z,3.10
2018-11-01T05:59:39.459Z,3.50
2018-11-01T06:02:17.134Z,3.40
2018-11-01T06:04:46.242Z,3.70
2018-11-01T06:07:16.275Z,3.83
2018-11-01T06:09:45.006Z,3.17
2018-11-01T06:12:13.750Z,3.37
2018-11-01T06:14:42.491Z,5.50
2018-11-01T06:17:11.258Z,4.13
2018-11-01T06:19:40.013Z,3.63
2018-11-01T06:22:08.839Z,14.87
2018-11-01T06:24:37.604Z,3.03
2018-11-01T06:27:06.382Z,3.33
2018-11-01T06:29:35.113Z,3.00
2018-11-01T06:32:04.001Z,3.00
2018-11-01T06:34:35.943Z,2.93
2018-11-01T06:37:04.772Z,2.90
2018-11-01T06:39:33.505Z,3.20
2018-11-01T06:42:02.243Z,3.33
2018-11-01T06:44:30.979Z,4.23
2018-11-01T06:46:59.768Z,3.10
2018-11-01T06:49:28.512Z,3.93
2018-11-01T06:51:57.292Z,2.83
2018-11-01T06:54:26.065Z,2.63
2018-11-01T06:56:54.929Z,4.80
2018-11-01T06:59:23.841Z,3.10
2018-11-01T07:01:53.771Z,3.47
2018-11-01T07:04:28.898Z,3.23
2018-11-01T07:06:57.730Z,3.10
2018-11-01T07:09:26.449Z,3.93
2018-11-01T07:11:55.176Z,3.40
2018-11-01T07:14:23.945Z,3.30
2018-11-01T07:16:52.761Z,3.57
2018-11-01T07:19:21.480Z,3.20
2018-11-01T07:21:50.338Z,3.80
2018-11-01T07:24:19.127Z,3.97
2018-11-01T07:26:47.922Z,2.90
2018-11-01T07:29:16.693Z,4.73
2018-11-01T07:31:45.486Z,3.33
2018-11-01T07:34:14.201Z,4.20
2018-11-01T07:36:43.021Z,5.47
2018-11-01T07:39:12.169Z,6.00
2018-11-01T07:41:41.049Z,3.63
2018-11-01T07:44:09.868Z,3.50
2018-11-01T07:46:38.641Z,4.60
2018-11-01T07:49:07.900Z,3.27
2018-11-01T07:51:36.729Z,4.97
2018-11-01T07:54:05.803Z,4.20
2018-11-01T07:56:34.607Z,4.03
2018-11-01T07:59:03.434Z,5.67
2018-11-01T08:01:33.153Z,5.03
2018-11-01T08:04:02.552Z,4.87
2018-11-01T08:06:31.425Z,4.87
2018-11-01T08:09:00.589Z,4.67
2018-11-01T08:11:29.376Z,4.50
2018-11-01T08:13:58.117Z,5.27
2018-11-01T08:16:26.948Z,4.23
2018-11-01T08:18:55.736Z,4.80
2018-11-01T08:21:24.565Z,4.73
2018-11-01T08:23:53.404Z,3.83
2018-11-01T08:26:22.192Z,4.20
2018-11-01T08:28:50.937Z,3.50
2018-11-01T08:31:19.710Z,3.60
2018-11-01T08:33:48.569Z,3.07
2018-11-01T08:36:17.348Z,3.17
2018-11-01T08:38:46.165Z,3.10
2018-11-01T08:41:14.925Z,3.23
2018-11-01T08:43:43.695Z,3.87
2018-11-01T08:46:12.385Z,3.53
2018-11-01T08:48:41.172Z,3.30
2018-11-01T08:51:10.103Z,3.27
2018-11-01T08:53:38.878Z,6.07
2018-11-01T08:56:07.724Z,5.07
2018-11-01T08:58:36.552Z,5.07
2018-11-01T09:01:05.453Z,4.57
2018-11-01T09:03:34.198Z,5.23
2018-11-01T09:06:03.023Z,6.00
2018-11-01T09:08:31.909Z,4.20
2018-11-01T09:11:00.643Z,5.27
2018-11-01T09:13:29.413Z,5.33
2018-11-01T09:15:58.189Z,4.00
2018-11-01T09:18:26.917Z,4.37
2018-11-01T09:20:55.672Z,5.17
2018-11-01T09:23:24.438Z,4.03
2018-11-01T09:25:53.249Z,3.93
2018-11-01T09:28:22.835Z,4.40
2018-11-01T09:30:51.629Z,3.43
2018-11-01T09:33:20.393Z,3.87
2018-11-01T09:35:49.194Z,3.60
2018-11-01T09:38:17.977Z,3.40
2018-11-01T09:40:46.750Z,3.40
2018-11-01T09:43:16.867Z,4.47
2018-11-01T09:45:51.844Z,3.63
2018-11-01T09:48:20.635Z,4.17
2018-11-01T09:50:49.349Z,3.43
2018-11-01T09:53:18.196Z,3.30
2018-11-01T09:55:47.025Z,3.47
2018-11-01T09:58:15.759Z,3.33
2018-11-01T10:00:44.592Z,3.10
2018-11-01T10:03:13.307Z,3.27
2018-11-01T10:05:42.096Z,4.40
2018-11-01T10:08:10.812Z,2.90
2018-11-01T10:10:39.546Z,3.33
2018-11-01T10:13:08.377Z,4.17
2018-11-01T10:15:37.268Z,5.87
2018-11-01T10:18:06.418Z,4.90
2018-11-01T10:20:34.937Z,4.77
2018-11-01T10:23:03.796Z,4.67
2018-11-01T10:25:32.533Z,4.03
2018-11-01T10:28:01.286Z,3.83
2018-11-01T10:30:30.057Z,5.53
2018-11-01T10:32:58.824Z,3.70
2018-11-01T10:35:27.588Z,3.33
2018-11-01T10:37:56.377Z,3.27
2018-11-01T10:40:25.261Z,3.30
2018-11-01T10:42:53.997Z,3.13
2018-11-01T10:45:22.734Z,3.70
2018-11-01T10:47:51.592Z,3.87
2018-11-01T10:50:20.944Z,3.30
2018-11-01T10:52:49.655Z,3.60
2018-11-01T10:55:18.468Z,3.13
2018-11-01T10:57:47.227Z,3.57
2018-11-01T11:00:21.460Z,3.60
2018-11-01T11:02:51.353Z,3.77
2018-11-01T11:05:21.284Z,3.40
2018-11-01T11:07:50.447Z,3.47
2018-11-01T11:10:19.633Z,3.83
2018-11-01T11:12:48.402Z,3.80
2018-11-01T11:15:17.218Z,3.77
2018-11-01T11:17:45.905Z,4.27
2018-11-01T11:20:14.775Z,4.43
2018-11-01T11:22:43.401Z,4.20
2018-11-01T11:25:12.618Z,4.30
2018-11-01T11:27:41.535Z,4.40
2018-11-01T11:30:11.053Z,4.10
2018-11-01T11:32:40.023Z,4.67
2018-11-01T11:35:09.744Z,4.10
2018-11-01T11:37:38.502Z,4.17
2018-11-01T11:40:08.676Z,4.10
2018-11-01T11:42:37.429Z,4.77
2018-11-01T11:45:07.338Z,4.30
2018-11-01T11:47:36.135Z,4.13
2018-11-01T11:50:05.392Z,3.97
2018-11-01T11:52:34.170Z,4.20
2018-11-01T11:55:02.918Z,4.00
2018-11-01T11:57:31.707Z,4.30
2018-11-01T12:00:00.485Z,4.50
2018-11-01T12:02:29.301Z,4.10
2018-11-01T12:04:58.017Z,4.50
2018-11-01T12:07:26.874Z,4.90
2018-11-01T12:09:55.724Z,4.83
2018-11-01T12:12:24.449Z,5.07
2018-11-01T12:14:53.213Z,4.70
2018-11-01T12:17:22.069Z,5.43
2018-11-01T12:19:50.857Z,5.33
2018-11-01T12:22:19.642Z,5.07
2018-11-01T12:24:48.514Z,4.73
2018-11-01T12:27:17.347Z,5.13
2018-11-01T12:29:46.183Z,4.43
2018-11-01T12:32:15.019Z,4.30
2018-11-01T12:34:43.738Z,4.50
2018-11-01T12:37:12.511Z,4.83
2018-11-01T12:39:41.190Z,5.23
2018-11-01T12:42:10.004Z,5.33
2018-11-01T12:44:38.798Z,5.40
2018-11-01T12:47:07.561Z,5.20
2018-11-01T12:49:36.315Z,5.20
2018-11-01T12:52:05.068Z,5.80
2018-11-01T12:54:33.905Z,6.07
2018-11-01T12:57:02.683Z,5.80
2018-11-01T12:59:31.451Z,6.63
2018-11-01T13:02:00.756Z,6.37
2018-11-01T13:04:29.537Z,6.60
2018-11-01T13:06:58.258Z,7.93
2018-11-01T13:09:27.065Z,5.80
2018-11-01T13:11:55.993Z,6.97
2018-11-01T13:14:24.915Z,6.57
2018-11-01T13:16:53.884Z,6.47
2018-11-01T13:19:22.741Z,6.50
2018-11-01T13:21:51.752Z,6.97
2018-11-01T13:24:20.654Z,6.63
2018-11-01T13:26:49.566Z,6.47
2018-11-01T13:29:18.538Z,6.00
2018-11-01T13:31:50.586Z,6.17
2018-11-01T13:34:19.513Z,7.17
2018-11-01T13:36:48.369Z,8.20
2018-11-01T13:39:17.370Z,6.40
2018-11-01T13:41:46.260Z,6.30
2018-11-01T13:44:15.142Z,6.60
2018-11-01T13:46:44.275Z,6.87
2018-11-01T13:49:13.571Z,7.23
2018-11-01T13:51:42.389Z,7.23
2018-11-01T13:54:11.850Z,7.20
2018-11-01T13:56:47.553Z,7.90
2018-11-01T13:59:16.342Z,10.13
2018-11-01T14:01:45.212Z,7.97
2018-11-01T14:04:14.013Z,6.83
2018-11-01T14:06:42.858Z,8.73
2018-11-01T14:09:11.713Z,7.57
2018-11-01T14:11:40.519Z,8.73
2018-11-01T14:14:09.843Z,7.20
2018-11-01T14:16:38.662Z,7.70
2018-11-01T14:19:07.522Z,6.87
2018-11-01T14:21:36.272Z,6.87
2018-11-01T14:24:05.449Z,9.07
2018-11-01T14:26:34.224Z,6.80
2018-11-01T14:29:03.030Z,7.87
2018-11-01T14:31:31.749Z,7.37
2018-11-01T14:34:00.483Z,6.80
2018-11-01T14:36:29.210Z,8.07
2018-11-01T14:38:58.015Z,8.13
2018-11-01T14:41:26.801Z,7.47
2018-11-01T14:43:55.685Z,11.23
2018-11-01T14:46:24.505Z,8.80
2018-11-01T14:48:53.232Z,16.70
2018-11-01T14:51:22.065Z,8.40
2018-11-01T14:53:51.062Z,8.40
2018-11-01T14:56:21.311Z,10.67
2018-11-01T14:58:49.703Z,10.67
2018-11-01T15:01:17.661Z,10.93
2018-11-01T15:03:46.498Z,13.30
2018-11-01T15:06:15.368Z,11.07
2018-11-01T15:08:44.435Z,10.87
2018-11-01T15:11:13.309Z,9.40
2018-11-01T15:13:42.226Z,11.53
2018-11-01T15:16:13.151Z,9.17
2018-11-01T15:18:44.885Z,9.00
2018-11-01T15:21:13.885Z,10.67
2018-11-01T15:23:42.790Z,16.57
2018-11-01T15:26:11.755Z,8.07
2018-11-01T15:28:40.562Z,11.63
2018-11-01T15:31:09.544Z,9.40
2018-11-01T15:33:38.443Z,9.07
2018-11-01T15:36:07.237Z,10.33
2018-11-01T15:38:36.083Z,12.13
2018-11-01T15:41:11.599Z,12.77
2018-11-01T15:43:40.831Z,11.67
2018-11-01T15:46:10.560Z,12.77
2018-11-01T15:48:39.671Z,9.93
2018-11-01T15:51:09.527Z,10.90
2018-11-01T15:53:38.512Z,12.17
2018-11-01T15:57:10.161Z,11.13
2018-11-01T15:59:39.072Z,10.33
2018-11-01T16:02:07.826Z,9.53
2018-11-01T16:04:36.498Z,8.93
2018-11-01T16:09:56.406Z,9.57
2018-11-01T16:12:25.721Z,12.73
2018-11-01T16:14:58.751Z,9.73
2018-11-01T16:17:27.822Z,11.40
2018-11-01T16:19:57.713Z,11.00
2018-11-01T16:22:26.653Z,12.93
2018-11-01T16:24:55.495Z,13.57
2018-11-01T16:27:24.317Z,13.90
2018-11-01T16:29:53.187Z,17.87
2018-11-01T16:32:22.075Z,10.93
2018-11-01T16:34:50.954Z,12.83
2018-11-01T16:37:19.965Z,12.40
2018-11-01T16:39:48.817Z,11.13
2018-11-01T16:42:17.778Z,15.03
2018-11-01T16:44:46.535Z,12.83
2018-11-01T16:47:15.367Z,13.60
2018-11-01T16:49:44.257Z,14.90
2018-11-01T16:52:13.027Z,14.60
2018-11-01T16:54:41.729Z,14.37
2018-11-01T16:57:10.461Z,16.43
2018-11-01T16:59:39.212Z,14.80
2018-11-01T17:02:08.470Z,14.20
2018-11-01T17:04:37.209Z,13.60
2018-11-01T17:07:06.399Z,14.57
2018-11-01T17:09:35.216Z,17.33
2018-11-01T17:12:04.081Z,13.83
2018-11-01T17:14:32.918Z,12.93
2018-11-01T17:17:01.664Z,13.70
2018-11-01T17:19:30.459Z,13.23
2018-11-01T17:21:59.279Z,13.07
2018-11-01T17:24:28.020Z,13.13
2018-11-01T17:26:56.745Z,13.40
2018-11-01T17:29:25.500Z,16.00
2018-11-01T17:31:54.443Z,13.33
2018-11-01T17:34:23.168Z,13.30
2018-11-01T17:36:51.891Z,12.77
2018-11-01T17:39:20.639Z,12.43
2018-11-01T17:41:49.366Z,11.50
2018-11-01T17:44:18.172Z,12.13
2018-11-01T17:46:46.931Z,10.63
2018-11-01T17:49:15.601Z,11.53
2018-11-01T17:51:44.389Z,12.10
2018-11-01T17:54:14.191Z,12.00
2018-11-01T17:56:43.868Z,12.17
2018-11-01T17:59:12.633Z,12.53
2018-11-01T18:01:41.470Z,11.97
2018-11-01T18:04:10.706Z,12.90
2018-11-01T18:06:39.583Z,12.03
2018-11-01T18:09:12.641Z,11.73
2018-11-01T18:11:41.481Z,12.03
2018-11-01T18:14:10.352Z,10.60
2018-11-01T18:16:39.504Z,10.67
2018-11-01T18:19:08.285Z,12.60
2018-11-01T18:21:36.992Z,11.30
2018-11-01T18:24:06.321Z,10.43
2018-11-01T18:26:35.034Z,10.97
2018-11-01T18:29:03.947Z,10.33
2018-11-01T18:31:33.083Z,9.93
2018-11-01T18:34:01.823Z,10.17
2018-11-01T18:36:30.582Z,10.70
2018-11-01T18:38:59.370Z,10.50
2018-11-01T18:41:28.195Z,13.90
2018-11-01T18:43:56.936Z,15.53
2018-11-01T18:46:25.703Z,15.50
2018-11-01T18:48:54.489Z,15.90
2018-11-01T18:51:23.269Z,15.97
2018-11-01T18:53:52.021Z,16.13
2018-11-01T18:56:20.712Z,14.83
2018-11-01T18:58:49.520Z,14.63
2018-11-01T19:01:18.336Z,17.70
2018-11-01T19:03:47.056Z,18.53
2018-11-01T19:06:15.776Z,18.77
2018-11-01T19:08:44.510Z,18.67
2018-11-01T19:11:13.305Z,18.13
2018-11-01T19:13:42.143Z,17.30
2018-11-01T19:16:10.966Z,18.77
2018-11-01T19:18:39.711Z,17.33
2018-11-01T19:21:08.439Z,17.20
2018-11-01T19:23:37.264Z,17.23
2018-11-01T19:26:06.181Z,15.80
2018-11-01T19:28:34.925Z,16.37
2018-11-01T19:31:03.660Z,16.20
2018-11-01T19:33:32.589Z,17.97
2018-11-01T19:36:01.426Z,18.40
2018-11-01T19:38:30.220Z,19.00
2018-11-01T19:40:58.977Z,17.80
2018-11-01T19:43:27.775Z,17.53
2018-11-01T19:45:56.641Z,18.07
2018-11-01T19:48:25.539Z,16.87
2018-11-01T19:50:54.236Z,17.23
2018-11-01T19:53:23.086Z,17.60
2018-11-01T19:55:52.016Z,16.90
2018-11-01T19:58:20.767Z,15.87
2018-11-01T20:00:49.597Z,15.83
2018-11-01T20:03:18.343Z,15.87
2018-11-01T20:05:47.130Z,15.27
2018-11-01T20:08:16.053Z,14.37
2018-11-01T20:10:44.792Z,14.70
2018-11-01T20:13:13.749Z,14.63
2018-11-01T20:15:42.825Z,15.60
2018-11-01T20:18:11.640Z,15.13
2018-11-01T20:20:40.404Z,15.23
2018-11-01T20:23:09.213Z,15.77
2018-11-01T20:25:38.081Z,16.43
2018-11-01T20:28:07.040Z,16.60
2018-11-01T20:30:35.421Z,15.67
2018-11-01T20:33:04.351Z,14.03
2018-11-01T20:35:33.213Z,15.43
2018-11-01T20:38:02.115Z,17.10
2018-11-01T20:40:30.930Z,26.97
2018-11-01T20:42:59.702Z,24.97
2018-11-01T20:45:28.479Z,25.23
2018-11-01T20:47:57.261Z,25.90
2018-11-01T20:50:26.124Z,17.87
2018-11-01T20:52:54.855Z,16.33
2018-11-01T20:55:23.724Z,17.80
2018-11-01T20:57:52.700Z,17.50
2018-11-01T21:00:21.297Z,17.80
2018-11-01T21:02:50.025Z,16.03
2018-11-01T21:05:18.802Z,15.80
2018-11-01T21:07:47.602Z,15.37
2018-11-01T21:10:16.340Z,16.07
2018-11-01T21:12:45.348Z,16.60
2018-11-01T21:15:14.817Z,18.63
2018-11-01T21:17:43.579Z,17.77
2018-11-01T21:20:12.380Z,16.20
2018-11-01T21:22:41.265Z,15.87
2018-11-01T21:25:11.429Z,16.67
2018-11-01T21:27:40.229Z,15.73
2018-11-01T21:30:09.478Z,16.67
2018-11-01T21:32:38.252Z,16.53
2018-11-01T21:35:07.485Z,16.23
2018-11-01T21:37:36.212Z,17.77
2018-11-01T21:40:07.028Z,17.77
2018-11-01T21:42:36.196Z,19.17
2018-11-01T21:45:06.468Z,18.00
2018-11-01T21:47:35.206Z,18.33
2018-11-01T21:50:04.121Z,22.80
2018-11-01T21:52:32.807Z,17.67
2018-11-01T21:55:01.533Z,16.23
2018-11-01T21:57:30.288Z,16.27
2018-11-01T21:59:59.033Z,15.43
2018-11-01T22:02:28.009Z,15.13
2018-11-01T22:04:56.767Z,15.37
2018-11-01T22:07:25.568Z,16.80
2018-11-01T22:09:54.258Z,15.70
2018-11-01T22:12:23.074Z,17.40
2018-11-01T22:14:51.799Z,16.23
2018-11-01T22:17:20.528Z,16.07
2018-11-01T22:19:49.301Z,15.90
2018-11-01T22:22:18.064Z,15.30
2018-11-01T22:24:46.802Z,16.00
2018-11-01T22:27:15.553Z,14.53
2018-11-01T22:29:44.333Z,13.60
2018-11-01T22:32:13.078Z,14.50
2018-11-01T22:34:41.832Z,13.60
2018-11-01T22:37:10.568Z,14.10
2018-11-01T22:39:39.395Z,17.17
2018-11-01T22:42:08.141Z,27.90
2018-11-01T22:44:36.994Z,18.57
2018-11-01T22:47:06.186Z,15.97
2018-11-01T22:49:34.938Z,18.37
2018-11-01T22:52:03.644Z,14.70
2018-11-01T22:54:32.316Z,13.33
2018-11-01T22:57:01.077Z,13.97
2018-11-01T22:59:29.804Z,13.47
2018-11-01T23:01:58.587Z,15.20
2018-11-01T23:04:27.392Z,12.20
2018-11-01T23:06:56.248Z,12.03
2018-11-01T23:09:24.984Z,11.73
2018-11-01T23:11:53.729Z,11.77
2018-11-01T23:14:22.525Z,12.43
2018-11-01T23:16:51.319Z,10.20
2018-11-01T23:19:20.057Z,10.67
2018-11-01T23:21:48.922Z,10.80
2018-11-01T23:24:17.740Z,9.50
2018-11-01T23:26:46.465Z,9.70
2018-11-01T23:29:15.216Z,10.20
2018-11-01T23:31:44.066Z,13.07
2018-11-01T23:34:12.830Z,10.27
2018-11-01T23:36:46.783Z,10.60
2018-11-01T23:39:20.907Z,9.07
2018-11-01T23:41:54.922Z,9.43
2018-11-01T23:44:28.967Z,9.97
2018-11-01T23:47:03.040Z,8.97
2018-11-01T23:49:38.009Z,8.93
2018-11-01T23:52:11.949Z,9.90
2018-11-01T23:54:40.713Z,10.27
2018-11-01T23:57:09.467Z,9.83
2018-11-01T23:59:38.499Z,10.57
